Latest Weather Observations for Amberley

IDQ60801

Issued at 9:32 pm EST Saturday 27 August 2016 (issued every 30 minutes, with the page automatically refreshed every 10 minutes)

About weather observations | Map of weather stations | Latest weather observations for QLD | Other Formats
Station Details ID: 040004 Name: AMBERLEY AMO Lat: -27.63 Lon: 152.71 Height: 24.2 m
Data from the previous 72 hours. | See also: Recent months at Amberley
Date/Time
EST
Temp
°C
App
Temp
°C
Dew
Point
°C
Rel
Hum
%
Delta-T
°C
Wind Press
QNH
hPa
Press
MSL
hPa
Rain since
9am
mm
Dir  Spd
km/h
Gust
km/h
Spd
kts
Gust
kts
27/09:30pm 7.4 5.0 5.4 87 0.9 NW 7 9 4 5 1021.5 1021.5 0.0
27/09:00pm 9.6 7.3 5.6 76 1.8 WNW 7 7 4 4 1021.3 1021.3 0.0
27/08:30pm 8.5 7.5 5.6 82 1.3 CALM 0 0 0 0 1021.3 1021.3 0.0
27/08:00pm 10.0 7.1 4.9 70 2.3 ESE 9 11 5 6 1021.0 1021.0 0.0
27/07:30pm 11.2 9.3 4.8 64 2.9 SW 4 9 2 5 1020.6 1020.6 0.0
27/07:00pm 12.8 11.5 3.9 54 4.0 CALM 0 0 0 0 1020.2 1020.2 0.0
27/06:30pm 12.5 11.2 4.3 57 3.7 CALM 0 0 0 0 1019.6 1019.6 0.0
27/06:00pm 15.4 13.9 3.0 43 5.6 CALM 0 0 0 0 1019.1 1019.1 0.0
27/05:30pm 17.5 13.7 1.6 34 7.1 SSW 11 13 6 7 1018.8 1018.8 0.0
27/05:00pm 18.9 15.0 0.9 30 8.0 S 11 15 6 8 1018.4 1018.4 0.0
27/04:30pm 19.6 15.5 -0.3 26 8.7 WSW 11 15 6 8 1018.1 1018.1 0.0
27/04:00pm 19.9 16.2 -0.1 26 8.8 SW 9 15 5 8 1017.9 1017.9 0.0
27/03:30pm 20.8 17.6 -0.2 24 9.3 NE 6 9 3 5 1017.7 1017.7 0.0
27/03:00pm 20.8 16.2 -1.0 23 9.5 W 13 20 7 11 1017.7 1017.7 0.0
27/02:30pm 19.8 16.0 -1.1 24 9.0 WSW 9 17 5 9 1017.7 1017.7 0.0
27/02:00pm 20.2 16.0 -1.1 24 9.2 SW 11 19 6 10 1018.0 1018.0 0.0
27/01:30pm 19.9 15.4 -0.1 26 8.8 NW 13 24 7 13 1018.3 1018.3 0.0
27/01:00pm 20.4 14.8 0.1 25 9.0 W 19 30 10 16 1018.5 1018.5 0.0
27/12:30pm 19.6 14.9 1.1 29 8.3 W 15 24 8 13 1018.8 1018.8 0.0
27/12:00pm 19.3 13.8 0.6 28 8.3 SW 19 28 10 15 1019.2 1019.2 0.0
27/11:30am 19.2 14.9 0.8 29 8.2 SW 13 20 7 11 1019.5 1019.5 0.0
27/11:00am 18.1 13.7 0.5 30 7.7 W 13 15 7 8 1019.9 1019.9 0.0
27/10:30am 17.1 12.9 1.5 35 6.9 W 13 19 7 10 1020.3 1020.3 0.0
27/10:00am 16.8 13.0 1.7 36 6.7 WSW 11 17 6 9 1020.7 1020.7 0.0
27/09:30am 15.8 11.9 3.6 44 5.6 WNW 13 20 7 11 1020.7 1020.7 0.0
27/09:00am 14.2 10.8 3.9 50 4.7 WNW 11 15 6 8 1020.8 1020.8 0.0
27/08:30am 12.9 9.3 3.2 51 4.3 NW 11 13 6 7 1020.5 1020.5 0.0
27/08:00am 11.3 8.3 4.1 61 3.2 NW 9 13 5 7 1020.4 1020.4 0.0
27/07:30am 8.7 7.6 5.1 78 1.6 CALM 0 0 0 0 1020.1 1020.1 0.0
27/07:00am 6.0 4.8 4.6 91 0.6 CALM 0 0 0 0 1019.9 1019.9 0.0
27/06:30am 3.9 2.4 3.2 95 0.3 CALM 0 0 0 0 1019.8 1019.8 0.0
27/06:00am 4.4 3.0 3.4 93 0.4 CALM 0 0 0 0 1019.5 1019.5 0.0
27/05:30am 4.9 3.4 3.2 89 0.7 CALM 0 0 0 0 1019.3 1019.3 0.0
27/05:00am 5.2 3.8 3.8 91 0.6 CALM 0 0 0 0 1018.9 1018.9 0.0
27/04:30am 5.0 1.9 3.6 91 0.6 NW 9 9 5 5 1018.5 1018.5 0.0
27/04:00am 4.6 1.9 3.6 93 0.4 NNW 7 9 4 5 1018.3 1018.3 0.0
27/03:30am 5.5 3.4 3.8 89 0.7 SSW 4 7 2 4 1018.2 1018.2 0.0
27/03:00am 6.7 5.2 3.1 78 1.5 CALM 0 0 0 0 1018.2 1018.2 0.0
27/02:30am 6.3 4.9 3.4 82 1.2 CALM 0 0 0 0 1018.3 1018.3 0.0
27/02:00am 7.4 5.1 2.9 73 1.9 ENE 4 7 2 4 1018.0 1018.0 0.0
27/01:30am 7.2 4.1 3.4 77 1.6 WNW 9 11 5 6 1017.8 1017.8 0.0
27/01:00am 6.9 5.6 4.1 82 1.2 CALM 0 0 0 0 1017.9 1017.9 0.0
27/12:30am 8.3 5.2 3.6 72 2.0 W 9 11 5 6 1018.0 1018.0 0.0
27/12:00am 9.3 7.9 3.3 66 2.6 CALM 0 0 0 0 1018.0 1018.0 0.0
 
Date/Time
EST
Temp
°C
App
Temp
°C
Dew
Point
°C
Rel
Hum
%
Delta-T
°C
Wind Press
QNH
hPa
Press
MSL
hPa
Rain since
9am
mm
Dir  Spd
km/h
Gust
km/h
Spd
kts
Gust
kts
26/11:30pm 9.1 7.3 3.3 67 2.5 SSW 2 7 1 4 1017.7 1017.7 0.0
26/11:00pm 11.8 8.5 2.6 53 4.0 SW 9 11 5 6 1017.6 1017.6 0.0
26/10:30pm 11.9 7.4 2.4 52 4.1 WNW 15 19 8 10 1017.6 1017.6 0.0
26/10:00pm 12.3 7.8 2.4 51 4.3 WNW 15 17 8 9 1017.5 1017.5 0.0
26/09:30pm 12.8 8.7 2.5 49 4.5 W 13 19 7 10 1017.4 1017.4 0.0
26/09:00pm 14.1 9.6 2.0 44 5.3 W 15 22 8 12 1017.2 1017.2 0.0
26/08:30pm 14.9 9.4 0.6 37 6.1 W 19 32 10 17 1016.9 1016.9 0.0
26/08:00pm 15.0 9.2 0.1 36 6.3 W 20 28 11 15 1016.6 1016.6 0.0
26/07:30pm 15.3 9.0 -0.8 33 6.7 W 22 30 12 16 1016.2 1016.2 0.0
26/07:00pm 15.0 9.4 -0.2 35 6.4 W 19 28 10 15 1016.0 1016.0 0.0
26/06:30pm 14.0 9.4 1.5 42 5.4 WNW 15 19 8 10 1015.8 1015.8 0.0
26/06:00pm 15.9 10.6 -0.5 32 6.9 WNW 17 24 9 13 1015.3 1015.3 0.0
26/05:30pm 15.8 11.6 1.4 37 6.3 WNW 13 17 7 9 1014.9 1014.9 0.0
26/05:00pm 17.4 13.4 0.4 31 7.4 WNW 11 15 6 8 1014.5 1014.5 0.0
26/04:30pm 19.3 14.6 -1.7 24 8.9 NW 13 19 7 10 1014.4 1014.4 0.0
26/04:00pm 19.8 14.6 -2.7 21 9.4 NW 15 22 8 12 1014.0 1014.0 0.0
26/03:30pm 20.0 15.5 -3.6 20 9.7 NW 11 17 6 9 1013.8 1013.8 0.0
26/03:00pm 20.0 14.7 -3.6 20 9.7 NW 15 28 8 15 1013.8 1013.8 0.0
26/02:30pm 19.7 14.1 -2.5 22 9.3 NW 17 28 9 15 1014.0 1014.0 0.0
26/02:00pm 19.4 14.0 -1.0 25 8.8 NNW 17 26 9 14 1014.0 1014.0 0.0
26/01:30pm 19.3 14.2 1.0 29 8.2 NNW 17 26 9 14 1014.4 1014.4 0.0
26/01:00pm 19.2 14.6 1.5 30 8.0 N 15 24 8 13 1014.6 1014.6 0.0
26/12:30pm 18.8 15.1 2.5 33 7.5 NW 11 19 6 10 1014.9 1014.9 0.0
26/12:00pm 18.3 14.3 2.6 35 7.2 N 13 22 7 12 1015.5 1015.5 0.0
26/11:30am 18.6 15.1 3.7 37 7.0 NW 11 19 6 10 1015.9 1015.9 0.0
26/11:00am 17.6 14.9 3.7 39 6.5 W 7 15 4 8 1016.4 1016.4 0.0
26/10:30am 16.7 13.8 4.6 44 5.7 WNW 9 15 5 8 1016.5 1016.5 0.0
26/10:00am 16.2 13.3 4.5 45 5.5 NW 9 15 5 8 1017.1 1017.1 0.0
26/09:30am 14.8 12.3 5.0 52 4.6 NW 7 11 4 6 1017.7 1017.7 0.0
26/09:00am 13.6 11.5 5.8 59 3.7 WNW 6 11 3 6 1018.0 1018.0 0.0
26/08:30am 12.0 9.9 6.5 69 2.6 NW 7 11 4 6 1018.2 1018.2 0.0
26/08:00am 10.4 8.0 6.8 78 1.7 NW 9 11 5 6 1018.4 1018.4 0.0
26/07:30am 7.4 5.6 5.6 88 0.8 SSW 4 7 2 4 1018.2 1018.2 0.0
26/07:00am 5.8 4.6 4.6 92 0.5 CALM 0 7 0 4 1017.8 1017.8 0.0
26/06:30am 3.2 1.6 2.4 94 0.3 CALM 0 0 0 0 1017.4 1017.4 0.0
26/06:00am 3.5 2.0 2.8 95 0.3 CALM 0 6 0 3 1017.0 1017.0 0.0
26/05:30am 5.2 3.6 4.3 94 0.4 NW 2 6 1 3 1016.9 1016.9 0.0
26/05:00am 5.2 2.5 3.8 91 0.6 NW 7 7 4 4 1016.4 1016.4 0.0
26/04:30am 5.1 3.8 3.9 92 0.5 CALM 0 0 0 0 1015.9 1015.9 0.0
26/04:00am 5.0 2.3 3.8 92 0.5 NW 7 9 4 5 1015.8 1015.8 0.0
26/03:30am 4.8 3.5 4.1 95 0.3 CALM 0 6 0 3 1015.6 1015.6 0.0
26/03:00am 5.2 3.9 4.0 92 0.5 CALM 0 0 0 0 1015.6 1015.6 0.0
26/02:30am 5.5 4.1 3.8 89 0.7 CALM 0 0 0 0 1015.6 1015.6 0.0
26/02:00am 6.2 5.0 4.6 89 0.7 CALM 0 0 0 0 1015.8 1015.8 0.0
26/01:30am 6.8 5.6 4.5 85 1.0 CALM 0 0 0 0 1015.8 1015.8 0.0
26/01:00am 7.3 4.8 4.8 84 1.1 NNW 7 9 4 5 1015.9 1015.9 0.0
26/12:30am 7.0 4.5 4.5 84 1.1 NNW 7 11 4 6 1016.1 1016.1 0.0
26/12:00am 7.6 5.0 4.4 80 1.4 NW 7 9 4 5 1016.1 1016.1 0.0
 
Date/Time
EST
Temp
°C
App
Temp
°C
Dew
Point
°C
Rel
Hum
%
Delta-T
°C
Wind Press
QNH
hPa
Press
MSL
hPa
Rain since
9am
mm
Dir  Spd
km/h
Gust
km/h
Spd
kts
Gust
kts
25/11:30pm 9.4 6.5 4.9 73 2.0 WSW 9 13 5 7 1016.1 1016.1 0.0
25/11:00pm 11.4 7.6 4.0 60 3.3 WSW 13 17 7 9 1016.1 1016.1 0.0
25/10:30pm 11.6 7.9 4.5 61 3.2 WSW 13 20 7 11 1016.2 1016.2 0.0
25/10:00pm 11.7 7.7 4.7 62 3.2 WSW 15 22 8 12 1016.3 1016.3 0.0
25/09:30pm 12.0 7.6 4.8 61 3.3 W 17 22 9 12 1016.1 1016.1 0.0
25/09:00pm 11.3 6.7 3.9 60 3.3 W 17 24 9 13 1015.9 1015.9 0.0
25/08:30pm 10.6 6.6 5.1 69 2.5 W 15 20 8 11 1015.9 1015.9 0.0
25/08:00pm 10.3 7.4 4.7 68 2.5 W 9 13 5 7 1015.4 1015.4 0.0
25/07:30pm 12.1 8.4 4.6 60 3.4 W 13 15 7 8 1015.1 1015.1 0.0
25/07:00pm 13.5 9.7 4.1 53 4.3 W 13 17 7 9 1014.8 1014.8 0.0
25/06:30pm 14.2 10.0 3.9 50 4.7 W 15 17 8 9 1014.2 1014.2 0.0
25/06:00pm 15.0 10.4 3.6 46 5.2 W 17 24 9 13 1013.6 1013.6 0.0
25/05:30pm 15.9 10.8 2.9 41 5.9 W 19 24 10 13 1012.9 1012.9 0.0
25/05:00pm 17.2 11.5 3.1 39 6.5 W 22 33 12 18 1012.3 1012.3 0.0
25/04:30pm 18.1 11.3 3.0 36 7.0 WNW 28 35 15 19 1011.7 1011.7 0.0
25/04:00pm 18.9 12.5 3.0 34 7.4 WNW 26 33 14 18 1011.3 1011.3 0.0
25/03:30pm 19.2 13.1 2.9 34 7.6 W 24 37 13 20 1010.8 1010.8 0.0
25/03:00pm 19.6 12.5 3.6 34 7.6 W 30 41 16 22 1010.6 1010.6 0.0
25/02:30pm 20.0 14.4 3.6 34 7.8 W 22 35 12 19 1010.4 1010.4 0.0
25/02:00pm 20.0 14.1 3.9 34 7.7 W 24 35 13 19 1010.3 1010.3 0.0
25/01:30pm 19.5 12.9 4.0 36 7.4 W 28 39 15 21 1010.2 1010.2 0.0
25/01:00pm 19.9 14.1 4.6 36 7.4 WSW 24 37 13 20 1010.3 1010.3 0.0
25/12:30pm 19.0 11.8 5.0 39 6.8 W 32 44 17 24 1010.7 1010.7 0.0
25/12:00pm 18.6 11.8 5.2 41 6.5 W 30 43 16 23 1011.0 1011.0 0.0
25/11:30am 18.0 10.9 5.5 43 6.1 W 32 43 17 23 1011.1 1011.1 0.0
25/11:00am 18.2 10.8 4.9 41 6.4 W 33 41 18 22 1011.5 1011.5 0.0
25/10:30am 17.2 10.1 5.4 45 5.7 WNW 32 41 17 22 1011.6 1011.6 0.0
25/10:00am 16.7 9.5 4.9 45 5.6 WNW 32 41 17 22 1011.8 1011.8 0.0
25/09:30am 16.4 9.3 5.6 49 5.2 WNW 32 39 17 21 1012.0 1012.0 0.0
25/09:00am 15.4 10.0 6.3 54 4.4 W 24 33 13 18 1011.5 1011.5 16.8
25/08:30am 15.3 8.5 7.0 57 4.1 WNW 32 41 17 22 1011.5 1011.5 16.8
25/08:00am 14.8 9.2 7.1 60 3.8 NW 26 39 14 21 1011.6 1011.6 16.8
25/07:30am 14.3 11.1 6.7 60 3.7 WNW 13 22 7 12 1011.0 1011.0 16.8
25/07:00am 13.2 7.5 6.5 64 3.2 W 26 37 14 20 1010.7 1010.7 16.8
25/06:30am 13.3 7.2 6.7 64 3.2 W 28 37 15 20 1010.7 1010.7 16.8
25/06:00am 13.7 8.4 6.9 63 3.3 W 24 33 13 18 1009.8 1009.8 16.8
25/05:30am 13.8 10.1 8.0 68 2.9 W 17 26 9 14 1010.1 1010.1 16.8
25/05:00am 14.4 10.1 7.8 64 3.3 W 20 28 11 15 1009.4 1009.4 16.8
25/04:30am 14.6 9.3 8.5 67 3.1 WNW 26 35 14 19 1009.2 1009.2 16.8
25/04:00am 14.9 10.2 9.3 69 2.9 WNW 24 30 13 16 1008.3 1008.3 16.8
25/03:30am 15.4 10.2 9.0 65 3.3 W 26 35 14 19 1008.2 1008.2 16.8
25/03:00am 15.8 11.2 9.7 67 3.2 WNW 24 33 13 18 1008.4 1008.4 16.8
25/02:30am 16.0 12.1 10.8 71 2.8 WNW 22 32 12 17 1008.1 1008.1 16.8
25/02:00am 16.0 12.0 11.8 76 2.3 W 24 32 13 17 1007.6 1007.6 16.8
25/01:30am 16.8 12.7 11.5 71 2.9 W 24 37 13 20 1006.5 1006.5 16.8
25/01:00am 17.5 12.6 12.5 72 2.8 W 30 43 16 23 1008.0 1008.0 16.8
25/12:41am 17.7 13.7 14.0 79 2.1 WNW 28 48 15 26 1007.5 1007.5 16.8
25/12:30am 17.5 15.3 14.4 82 1.8 WNW 19 30 10 16 1007.6 1007.6 16.8
25/12:00am 16.4 15.3 15.2 93 0.7 WNW 15 20 8 11 1007.6 1007.6 16.8
 
Date/Time
EST
Temp
°C
App
Temp
°C
Dew
Point
°C
Rel
Hum
%
Delta-T
°C
Wind Press
QNH
hPa
Press
MSL
hPa
Rain since
9am
mm
Dir  Spd
km/h
Gust
km/h
Spd
kts
Gust
kts
24/11:41pm 16.1 15.3 15.1 94 0.6 WNW 13 19 7 10 1008.1 1008.1 16.8
24/11:30pm 15.6 15.9 14.9 96 0.4 W 7 11 4 6 1008.1 1008.1 16.8
24/11:03pm 15.4 15.9 14.9 97 0.3 SW 6 11 3 6 1007.0 1007.0 16.8
24/11:00pm 15.3 16.2 15.0 98 0.2 WSW 4 11 2 6 1007.1 1007.1 16.8
24/10:30pm 15.2 16.0 14.7 97 0.3 S 4 9 2 5 1006.2 1006.2 16.8
24/10:00pm 15.1 15.3 14.6 97 0.3 NNE 7 9 4 5 1006.7 1006.7 16.8

Other Formats:

Comma delimited format used in spreadsheet applications
http://www.bom.gov.au/fwo/IDQ60801/IDQ60801.94568.axf

JavaScript Object Notation format (JSON) in row-major order
http://www.bom.gov.au/fwo/IDQ60801/IDQ60801.94568.json